createdAt,value
2018-07-25T00:00:32.993Z,4.10
2018-07-25T00:03:01.738Z,4.00
2018-07-25T00:05:30.466Z,4.20
2018-07-25T00:07:58.893Z,4.20
2018-07-25T00:10:32.840Z,4.50
2018-07-25T00:13:01.517Z,4.27
2018-07-25T00:15:30.323Z,4.33
2018-07-25T00:17:58.684Z,4.40
2018-07-25T00:20:27.486Z,4.07
2018-07-25T00:22:56.250Z,4.10
2018-07-25T00:25:25.120Z,4.03
2018-07-25T00:27:53.880Z,4.60
2018-07-25T00:30:22.726Z,4.70
2018-07-25T00:32:51.444Z,4.40
2018-07-25T00:35:20.199Z,3.90
2018-07-25T00:37:48.945Z,4.07
2018-07-25T00:40:17.681Z,4.60
2018-07-25T00:42:46.593Z,4.10
2018-07-25T00:45:15.323Z,4.43
2018-07-25T00:47:44.075Z,4.40
2018-07-25T00:50:12.858Z,4.33
2018-07-25T00:52:41.599Z,5.17
2018-07-25T00:55:09.986Z,4.33
2018-07-25T00:57:38.758Z,4.57
2018-07-25T01:00:07.532Z,4.40
2018-07-25T01:02:36.220Z,4.40
2018-07-25T01:05:05.192Z,4.30
2018-07-25T01:07:33.960Z,4.20
2018-07-25T01:10:02.747Z,4.63
2018-07-25T01:12:31.466Z,4.67
2018-07-25T01:15:00.221Z,4.33
2018-07-25T01:17:28.901Z,4.43
2018-07-25T01:19:57.629Z,4.27
2018-07-25T01:22:26.327Z,4.30
2018-07-25T01:24:55.073Z,4.10
2018-07-25T01:27:23.797Z,4.03
2018-07-25T01:29:52.552Z,4.27
2018-07-25T01:32:21.345Z,4.03
2018-07-25T01:34:50.066Z,4.43
2018-07-25T01:37:18.807Z,4.40
2018-07-25T01:39:47.558Z,4.50
2018-07-25T01:42:16.340Z,4.33
2018-07-25T01:44:45.142Z,4.73
2018-07-25T01:47:13.860Z,4.30
2018-07-25T01:49:42.740Z,4.80
2018-07-25T01:52:11.514Z,5.63
2018-07-25T01:54:40.259Z,5.97
2018-07-25T01:57:09.016Z,5.30
2018-07-25T01:59:37.741Z,5.80
2018-07-25T02:02:06.555Z,5.70
2018-07-25T02:04:35.391Z,5.90
2018-07-25T02:07:04.195Z,7.00
2018-07-25T02:09:32.963Z,6.87
2018-07-25T02:12:01.795Z,6.73
2018-07-25T02:14:30.577Z,6.73
2018-07-25T02:17:00.064Z,6.80
2018-07-25T02:19:28.805Z,7.20
2018-07-25T02:21:57.514Z,7.53
2018-07-25T02:24:26.339Z,8.23
2018-07-25T02:26:55.156Z,7.67
2018-07-25T02:29:23.874Z,7.80
2018-07-25T02:31:52.548Z,7.63
2018-07-25T02:34:22.350Z,7.50
2018-07-25T02:36:52.427Z,7.47
2018-07-25T02:39:21.234Z,7.90
2018-07-25T02:41:49.963Z,8.43
2018-07-25T02:44:18.693Z,8.00
2018-07-25T02:46:47.407Z,7.60
2018-07-25T02:49:16.173Z,8.93
2018-07-25T02:51:45.012Z,8.33
2018-07-25T02:54:13.765Z,8.80
2018-07-25T02:56:42.501Z,9.13
2018-07-25T02:59:11.378Z,9.00
2018-07-25T03:01:40.040Z,8.33
2018-07-25T03:04:08.903Z,8.57
2018-07-25T03:06:37.678Z,8.43
2018-07-25T03:09:08.364Z,7.67
2018-07-25T03:11:37.317Z,7.90
2018-07-25T03:14:06.150Z,7.53
2018-07-25T03:16:35.005Z,8.13
2018-07-25T03:19:03.726Z,7.77
2018-07-25T03:21:32.046Z,7.60
2018-07-25T03:24:00.745Z,8.80
2018-07-25T03:26:29.450Z,8.43
2018-07-25T03:28:58.202Z,7.87
2018-07-25T03:31:27.028Z,7.30
2018-07-25T03:33:55.677Z,7.87
2018-07-25T03:36:24.467Z,7.90
2018-07-25T03:38:53.196Z,7.60
2018-07-25T03:41:21.958Z,7.27
2018-07-25T03:43:50.722Z,8.47
2018-07-25T03:46:19.458Z,7.73
2018-07-25T03:48:48.224Z,7.07
2018-07-25T03:51:16.957Z,8.30
2018-07-25T03:53:45.969Z,7.93
2018-07-25T03:56:14.799Z,8.17
2018-07-25T03:58:43.541Z,7.63
2018-07-25T04:01:12.248Z,7.50
2018-07-25T04:03:40.966Z,7.60
2018-07-25T04:06:09.777Z,7.43
2018-07-25T04:08:38.526Z,7.00
2018-07-25T04:11:07.332Z,7.07
2018-07-25T04:13:36.111Z,7.30
2018-07-25T04:16:04.930Z,7.20
2018-07-25T04:18:33.290Z,7.27
2018-07-25T04:21:02.091Z,7.00
2018-07-25T04:23:30.842Z,7.00
2018-07-25T04:25:59.600Z,7.17
2018-07-25T04:28:28.327Z,6.50
2018-07-25T04:30:57.159Z,7.07
2018-07-25T04:33:25.873Z,6.53
2018-07-25T04:35:54.586Z,7.10
2018-07-25T04:38:23.329Z,6.67
2018-07-25T04:40:52.166Z,7.30
2018-07-25T04:43:20.927Z,6.70
2018-07-25T04:45:49.286Z,6.87
2018-07-25T04:48:18.038Z,7.33
2018-07-25T04:50:46.806Z,7.90
2018-07-25T04:53:15.150Z,7.67
2018-07-25T04:55:43.905Z,8.17
2018-07-25T04:58:12.584Z,7.07
2018-07-25T05:00:41.301Z,7.47
2018-07-25T05:03:10.125Z,7.60
2018-07-25T05:05:38.883Z,6.33
2018-07-25T05:08:07.627Z,7.03
2018-07-25T05:10:36.385Z,6.93
2018-07-25T05:13:05.155Z,7.03
2018-07-25T05:15:33.881Z,7.37
2018-07-25T05:18:02.742Z,7.43
2018-07-25T05:20:31.469Z,7.20
2018-07-25T05:23:00.201Z,7.13
2018-07-25T05:25:28.982Z,7.20
2018-07-25T05:27:57.776Z,8.43
2018-07-25T05:30:26.564Z,7.20
2018-07-25T05:32:55.314Z,8.03
2018-07-25T05:35:24.018Z,7.60
2018-07-25T05:37:52.814Z,8.57
2018-07-25T05:40:21.575Z,7.90
2018-07-25T05:42:50.347Z,8.60
2018-07-25T05:45:18.967Z,9.27
2018-07-25T05:47:47.899Z,7.93
2018-07-25T05:50:16.717Z,7.73
2018-07-25T05:52:45.388Z,8.40
2018-07-25T05:55:14.045Z,8.17
2018-07-25T05:57:42.846Z,7.83
2018-07-25T06:00:11.614Z,7.63
2018-07-25T06:02:40.389Z,7.17
2018-07-25T06:05:09.042Z,7.93
2018-07-25T06:07:37.805Z,8.77
2018-07-25T06:10:06.764Z,10.40
2018-07-25T06:12:35.439Z,9.50
2018-07-25T06:15:04.681Z,8.40
2018-07-25T06:17:33.453Z,9.30
2018-07-25T06:20:02.181Z,9.33
2018-07-25T06:22:30.999Z,9.60
2018-07-25T06:24:59.711Z,10.43
2018-07-25T06:27:28.448Z,11.40
2018-07-25T06:29:57.207Z,11.20
2018-07-25T06:32:25.963Z,11.13
2018-07-25T06:34:54.698Z,10.47
2018-07-25T06:37:23.348Z,10.10
2018-07-25T06:39:52.108Z,10.07
2018-07-25T06:42:20.826Z,11.60
2018-07-25T06:44:49.648Z,10.80
2018-07-25T06:47:18.347Z,10.73
2018-07-25T06:49:47.072Z,11.53
2018-07-25T06:52:15.786Z,10.80
2018-07-25T06:54:44.522Z,10.70
2018-07-25T06:57:13.386Z,10.50
2018-07-25T06:59:41.993Z,10.07
2018-07-25T07:02:11.901Z,10.67
2018-07-25T07:04:40.651Z,10.37
2018-07-25T07:07:09.505Z,9.67
2018-07-25T07:09:38.190Z,10.00
2018-07-25T07:12:07.101Z,10.37
2018-07-25T07:14:35.839Z,10.20
2018-07-25T07:17:04.540Z,11.07
2018-07-25T07:19:32.894Z,10.30
2018-07-25T07:22:01.540Z,9.80
2018-07-25T07:24:30.234Z,10.13
2018-07-25T07:26:58.924Z,8.53
2018-07-25T07:29:27.564Z,10.30
2018-07-25T07:31:56.420Z,9.20
2018-07-25T07:34:25.094Z,8.20
2018-07-25T07:36:53.917Z,8.20
2018-07-25T07:39:22.666Z,9.33
2018-07-25T07:41:51.363Z,8.70
2018-07-25T07:44:20.112Z,8.60
2018-07-25T07:46:48.829Z,9.43
2018-07-25T07:49:17.507Z,8.70
2018-07-25T07:51:46.183Z,9.57
2018-07-25T07:54:14.953Z,8.83
2018-07-25T07:56:43.681Z,9.23
2018-07-25T07:59:12.382Z,9.37
2018-07-25T08:01:41.166Z,8.60
2018-07-25T08:04:09.928Z,9.23
2018-07-25T08:06:38.807Z,9.13
2018-07-25T08:09:10.432Z,8.87
2018-07-25T08:11:39.359Z,9.20
2018-07-25T08:14:08.094Z,8.80
2018-07-25T08:16:36.763Z,8.90
2018-07-25T08:19:05.565Z,9.73
2018-07-25T08:21:34.265Z,7.70
2018-07-25T08:24:03.049Z,9.90
2018-07-25T08:26:31.788Z,10.43
2018-07-25T08:29:00.565Z,9.13
2018-07-25T08:31:29.313Z,8.50
2018-07-25T08:33:58.038Z,8.50
2018-07-25T08:36:26.833Z,8.10
2018-07-25T08:38:55.612Z,7.70
2018-07-25T08:41:24.350Z,7.50
2018-07-25T08:43:53.143Z,7.80
2018-07-25T08:46:22.062Z,7.37
2018-07-25T08:48:50.792Z,6.70
2018-07-25T08:51:19.566Z,7.20
2018-07-25T08:53:48.417Z,5.73
2018-07-25T08:56:17.209Z,6.90
2018-07-25T08:58:45.938Z,6.60
2018-07-25T09:01:14.400Z,6.47
2018-07-25T09:03:43.034Z,6.40
2018-07-25T09:06:11.864Z,5.97
2018-07-25T09:08:40.737Z,7.00
2018-07-25T09:11:09.492Z,5.47
2018-07-25T09:13:38.232Z,5.60
2018-07-25T09:16:06.832Z,5.97
2018-07-25T09:18:35.534Z,5.60
2018-07-25T09:21:04.311Z,5.77
2018-07-25T09:23:32.982Z,5.60
2018-07-25T09:26:01.771Z,5.93
2018-07-25T09:28:30.601Z,5.43
2018-07-25T09:30:59.322Z,5.60
2018-07-25T09:33:28.164Z,5.40
2018-07-25T09:35:56.908Z,5.50
2018-07-25T09:38:25.676Z,5.47
2018-07-25T09:40:54.101Z,4.93
2018-07-25T09:43:22.777Z,5.30
2018-07-25T09:45:51.515Z,5.50
2018-07-25T09:48:20.325Z,5.50
2018-07-25T09:50:49.013Z,5.50
2018-07-25T09:53:17.770Z,5.10
2018-07-25T09:55:46.506Z,6.30
2018-07-25T09:58:15.290Z,5.77
2018-07-25T10:00:48.893Z,6.23
2018-07-25T10:03:18.258Z,5.20
2018-07-25T10:05:47.175Z,5.70
2018-07-25T10:08:16.773Z,6.20
2018-07-25T10:10:45.906Z,5.67
2018-07-25T10:13:14.720Z,6.07
2018-07-25T10:15:43.503Z,6.43
2018-07-25T10:18:12.332Z,5.33
2018-07-25T10:20:41.117Z,5.57
2018-07-25T10:23:09.846Z,5.40
2018-07-25T10:25:38.677Z,5.60
2018-07-25T10:28:07.785Z,5.53
2018-07-25T10:30:36.626Z,6.03
2018-07-25T10:33:05.767Z,6.30
2018-07-25T10:35:34.389Z,5.43
2018-07-25T10:38:03.279Z,6.00
2018-07-25T10:40:31.977Z,5.70
2018-07-25T10:43:00.695Z,5.63
2018-07-25T10:45:29.427Z,5.85
2018-07-25T10:47:58.088Z,6.60
2018-07-25T10:50:26.843Z,6.17
2018-07-25T10:52:55.589Z,5.47
2018-07-25T10:55:24.386Z,5.80
2018-07-25T10:57:53.439Z,6.50
2018-07-25T11:00:22.326Z,5.65
2018-07-25T11:02:51.067Z,6.62
2018-07-25T11:05:19.900Z,6.03
2018-07-25T11:07:48.644Z,5.97
2018-07-25T11:10:17.392Z,6.40
2018-07-25T11:12:46.180Z,6.03
2018-07-25T11:15:14.898Z,6.10
2018-07-25T11:17:43.668Z,5.72
2018-07-25T11:20:12.587Z,6.45
2018-07-25T11:22:41.377Z,6.12
2018-07-25T11:25:10.159Z,6.10
2018-07-25T11:27:38.899Z,6.30
2018-07-25T11:30:07.739Z,5.87
2018-07-25T11:32:36.663Z,6.75
2018-07-25T11:35:05.576Z,5.95
2018-07-25T11:37:34.255Z,6.28
2018-07-25T11:40:02.935Z,6.15
2018-07-25T11:42:31.420Z,6.30
2018-07-25T11:45:00.168Z,5.83
2018-07-25T11:47:28.873Z,6.05
2018-07-25T11:49:57.722Z,5.58
2018-07-25T11:52:26.482Z,6.40
2018-07-25T11:54:55.219Z,6.10
2018-07-25T11:57:24.906Z,6.28
2018-07-25T11:59:53.581Z,6.35
2018-07-25T12:02:22.738Z,6.22
2018-07-25T12:04:51.450Z,6.47
2018-07-25T12:07:20.205Z,5.97
2018-07-25T12:09:48.926Z,5.90
2018-07-25T12:12:17.714Z,5.75
2018-07-25T12:14:46.394Z,5.65
2018-07-25T12:17:16.117Z,5.50
2018-07-25T12:19:44.905Z,6.08
2018-07-25T12:22:13.642Z,5.60
2018-07-25T12:24:42.413Z,5.78
2018-07-25T12:27:11.096Z,5.60
2018-07-25T12:29:39.890Z,5.95
2018-07-25T12:32:08.662Z,5.90
2018-07-25T12:34:37.377Z,5.90
2018-07-25T12:37:06.202Z,5.75
2018-07-25T12:39:34.996Z,5.30
2018-07-25T12:42:03.832Z,5.62
2018-07-25T12:44:32.581Z,5.95
2018-07-25T12:47:01.362Z,5.10
2018-07-25T12:49:30.128Z,5.55
2018-07-25T12:51:58.886Z,5.80
2018-07-25T12:54:27.704Z,5.22
2018-07-25T12:56:56.499Z,5.28
2018-07-25T12:59:25.336Z,5.65
2018-07-25T13:01:54.140Z,6.12
2018-07-25T13:04:22.852Z,5.72
2018-07-25T13:06:51.609Z,5.70
2018-07-25T13:09:20.355Z,6.22
2018-07-25T13:11:49.111Z,6.10
2018-07-25T13:14:17.853Z,5.47
2018-07-25T13:16:46.654Z,5.87
2018-07-25T13:19:15.436Z,6.37
2018-07-25T13:21:44.241Z,5.87
2018-07-25T13:24:13.069Z,5.85
2018-07-25T13:26:42.002Z,6.35
2018-07-25T13:29:10.792Z,5.78
2018-07-25T13:31:39.647Z,6.12
2018-07-25T13:34:08.544Z,5.58
2018-07-25T13:36:37.914Z,5.97
2018-07-25T13:39:08.274Z,5.80
2018-07-25T13:41:37.057Z,6.20
2018-07-25T13:44:05.893Z,6.05
2018-07-25T13:46:34.625Z,6.12
2018-07-25T13:49:03.369Z,5.85
2018-07-25T13:51:32.125Z,5.72
2018-07-25T13:54:00.941Z,5.90
2018-07-25T13:56:29.799Z,5.80
2018-07-25T13:58:58.526Z,6.20
2018-07-25T14:01:27.267Z,5.80
2018-07-25T14:03:56.036Z,6.12
2018-07-25T14:06:24.866Z,6.10
2018-07-25T14:08:53.713Z,6.15
2018-07-25T14:11:22.477Z,5.75
2018-07-25T14:13:51.206Z,6.00
2018-07-25T14:16:19.978Z,6.22
2018-07-25T14:18:48.782Z,6.28
2018-07-25T14:21:17.654Z,6.00
2018-07-25T14:23:46.541Z,5.90
2018-07-25T14:26:14.908Z,6.35
2018-07-25T14:28:43.831Z,6.08
2018-07-25T14:31:12.489Z,6.37
2018-07-25T14:33:41.279Z,6.70
2018-07-25T14:36:10.189Z,6.58
2018-07-25T14:38:38.885Z,6.05
2018-07-25T14:41:07.720Z,6.22
2018-07-25T14:43:36.511Z,6.45
2018-07-25T14:46:05.693Z,6.20
2018-07-25T14:48:34.493Z,6.42
2018-07-25T14:51:03.336Z,6.55
2018-07-25T14:53:32.036Z,6.05
2018-07-25T14:56:00.880Z,6.42
2018-07-25T14:58:29.700Z,6.08
2018-07-25T15:00:58.452Z,6.17
2018-07-25T15:03:27.136Z,6.30
2018-07-25T15:05:55.512Z,6.30
2018-07-25T15:08:24.205Z,6.10
2018-07-25T15:10:52.941Z,5.67
2018-07-25T15:13:21.735Z,5.92
2018-07-25T15:15:50.461Z,6.22
2018-07-25T15:18:19.227Z,6.10
2018-07-25T15:20:47.960Z,6.28
2018-07-25T15:24:19.791Z,6.10
2018-07-25T15:26:48.506Z,5.78
2018-07-25T15:29:17.323Z,5.53
2018-07-25T15:34:14.932Z,5.12
2018-07-25T15:36:49.916Z,5.25
2018-07-25T15:39:21.004Z,5.30
2018-07-25T15:41:50.491Z,5.40
2018-07-25T15:44:20.240Z,5.80
2018-07-25T15:46:49.074Z,5.42
2018-07-25T15:49:17.444Z,5.83
2018-07-25T15:51:46.482Z,5.97
2018-07-25T15:54:15.510Z,5.35
2018-07-25T15:56:44.487Z,6.60
2018-07-25T15:59:13.209Z,6.17
2018-07-25T16:01:42.016Z,5.95
2018-07-25T16:04:10.767Z,6.53
2018-07-25T16:06:39.584Z,6.08
2018-07-25T16:09:09.681Z,5.78
2018-07-25T16:11:38.783Z,5.65
2018-07-25T16:14:07.595Z,5.92
2018-07-25T16:16:36.399Z,5.90
2018-07-25T16:19:05.441Z,5.62
2018-07-25T16:21:34.202Z,5.62
2018-07-25T16:24:02.642Z,5.92
2018-07-25T16:26:31.450Z,6.05
2018-07-25T16:29:01.742Z,5.35
2018-07-25T16:31:30.474Z,5.60
2018-07-25T16:33:59.226Z,4.97
2018-07-25T16:36:28.081Z,5.40
2018-07-25T16:38:56.859Z,5.12
2018-07-25T16:41:25.628Z,5.58
2018-07-25T16:43:54.403Z,5.20
2018-07-25T16:46:23.351Z,5.25
2018-07-25T16:48:52.139Z,5.10
2018-07-25T16:51:20.963Z,5.50
2018-07-25T16:53:49.755Z,5.03
2018-07-25T16:56:18.493Z,5.28
2018-07-25T16:58:47.255Z,4.87
2018-07-25T17:01:15.862Z,5.22
2018-07-25T17:03:44.666Z,4.80
2018-07-25T17:06:13.433Z,5.30
2018-07-25T17:08:42.240Z,5.12
2018-07-25T17:11:11.027Z,4.90
2018-07-25T17:13:39.783Z,4.80
2018-07-25T17:16:08.882Z,4.92
2018-07-25T17:18:37.711Z,5.62
2018-07-25T17:21:06.932Z,5.00
2018-07-25T17:23:35.698Z,4.83
2018-07-25T17:26:04.464Z,4.83
2018-07-25T17:28:33.217Z,5.53
2018-07-25T17:31:01.966Z,5.60
2018-07-25T17:33:30.698Z,5.28
2018-07-25T17:35:59.490Z,4.95
2018-07-25T17:38:28.011Z,5.37
2018-07-25T17:40:56.696Z,5.15
2018-07-25T17:43:24.941Z,5.60
2018-07-25T17:45:53.620Z,5.40
2018-07-25T17:48:22.443Z,5.25
2018-07-25T17:50:51.219Z,5.85
2018-07-25T17:53:19.989Z,5.75
2018-07-25T17:55:48.719Z,5.62
2018-07-25T17:58:17.479Z,5.20
2018-07-25T18:00:46.307Z,5.35
2018-07-25T18:03:15.067Z,5.37
2018-07-25T18:05:43.706Z,5.25
2018-07-25T18:08:12.470Z,4.75
2018-07-25T18:10:41.254Z,5.22
2018-07-25T18:13:15.296Z,5.40
2018-07-25T18:15:44.140Z,4.90
2018-07-25T18:18:13.014Z,4.97
2018-07-25T18:20:41.681Z,4.97
2018-07-25T18:23:10.531Z,4.90
2018-07-25T18:25:39.311Z,5.10
2018-07-25T18:28:08.199Z,4.83
2018-07-25T18:30:36.990Z,4.80
2018-07-25T18:33:06.127Z,4.90
2018-07-25T18:35:35.062Z,4.50
2018-07-25T18:38:03.856Z,4.80
2018-07-25T18:40:32.923Z,4.50
2018-07-25T18:43:01.746Z,4.80
2018-07-25T18:45:30.644Z,4.70
2018-07-25T18:47:59.436Z,4.90
2018-07-25T18:50:28.266Z,4.50
2018-07-25T18:52:57.310Z,4.63
2018-07-25T18:55:26.200Z,4.50
2018-07-25T18:57:54.985Z,4.37
2018-07-25T19:00:23.936Z,4.70
2018-07-25T19:02:52.601Z,4.27
2018-07-25T19:05:25.493Z,4.60
2018-07-25T19:07:54.404Z,5.20
2018-07-25T19:10:23.103Z,5.40
2018-07-25T19:12:52.105Z,5.00
2018-07-25T19:15:26.484Z,5.37
2018-07-25T19:17:55.261Z,5.23
2018-07-25T19:20:24.650Z,5.37
2018-07-25T19:22:53.821Z,5.20
2018-07-25T19:25:22.873Z,5.40
2018-07-25T19:27:52.377Z,5.33
2018-07-25T19:30:21.544Z,5.37
2018-07-25T19:32:51.169Z,5.03
2018-07-25T19:35:20.101Z,5.00
2018-07-25T19:37:48.914Z,5.40
2018-07-25T19:40:17.662Z,5.70
2018-07-25T19:42:46.648Z,5.73
2018-07-25T19:45:15.457Z,5.43
2018-07-25T19:47:44.132Z,6.33
2018-07-25T19:50:13.071Z,5.13
2018-07-25T19:52:41.439Z,5.30
2018-07-25T19:55:10.409Z,5.83
2018-07-25T19:57:39.487Z,5.07
2018-07-25T20:00:08.319Z,5.40
2018-07-25T20:02:37.120Z,5.63
2018-07-25T20:05:07.524Z,5.27
2018-07-25T20:07:36.625Z,5.50
2018-07-25T20:10:05.875Z,5.63
2018-07-25T20:12:35.090Z,5.60
2018-07-25T20:15:09.376Z,5.37
2018-07-25T20:17:38.194Z,5.53
2018-07-25T20:20:07.538Z,5.63
2018-07-25T20:22:36.327Z,5.60
2018-07-25T20:25:06.211Z,5.53
2018-07-25T20:27:35.339Z,5.83
2018-07-25T20:30:04.690Z,6.20
2018-07-25T20:32:33.276Z,5.50
2018-07-25T20:35:02.072Z,5.73
2018-07-25T20:37:30.811Z,5.50
2018-07-25T20:39:59.707Z,5.80
2018-07-25T20:42:28.614Z,5.37
2018-07-25T20:44:57.402Z,5.70
2018-07-25T20:47:25.759Z,5.47
2018-07-25T20:49:54.501Z,5.73
2018-07-25T20:52:23.358Z,5.50
2018-07-25T20:54:52.053Z,5.70
2018-07-25T20:57:21.045Z,5.80
2018-07-25T20:59:49.833Z,5.80
2018-07-25T21:02:18.800Z,5.30
2018-07-25T21:04:47.567Z,5.60
2018-07-25T21:07:16.330Z,5.43
2018-07-25T21:09:44.998Z,5.87
2018-07-25T21:12:13.712Z,5.53
2018-07-25T21:14:42.428Z,5.70
2018-07-25T21:17:11.503Z,5.47
2018-07-25T21:19:40.190Z,5.60
2018-07-25T21:22:08.856Z,5.43
2018-07-25T21:24:37.544Z,5.33
2018-07-25T21:27:06.397Z,6.00
2018-07-25T21:29:35.127Z,5.73
2018-07-25T21:32:03.891Z,5.70
2018-07-25T21:34:32.620Z,5.03
2018-07-25T21:37:01.347Z,5.33
2018-07-25T21:39:30.076Z,5.30
2018-07-25T21:41:58.858Z,5.43
2018-07-25T21:44:27.580Z,5.30
2018-07-25T21:46:56.333Z,5.37
2018-07-25T21:49:25.116Z,5.30
2018-07-25T21:51:53.844Z,5.37
2018-07-25T21:54:22.566Z,5.60
2018-07-25T21:56:51.266Z,5.63
2018-07-25T21:59:20.031Z,5.60
2018-07-25T22:01:49.300Z,5.20
2018-07-25T22:04:17.975Z,5.20
2018-07-25T22:06:46.747Z,4.97
2018-07-25T22:09:15.516Z,5.20
2018-07-25T22:11:44.200Z,4.90
2018-07-25T22:14:13.014Z,4.83
2018-07-25T22:16:41.694Z,5.60
2018-07-25T22:19:10.026Z,5.20
2018-07-25T22:21:38.770Z,5.00
2018-07-25T22:24:07.604Z,5.33
2018-07-25T22:26:36.352Z,5.40
2018-07-25T22:29:05.116Z,5.17
2018-07-25T22:31:33.773Z,5.03
2018-07-25T22:34:02.631Z,5.23
2018-07-25T22:36:31.367Z,5.00
2018-07-25T22:39:00.008Z,5.50
2018-07-25T22:41:28.691Z,5.20
2018-07-25T22:43:57.392Z,6.10
2018-07-25T22:46:26.168Z,5.60
2018-07-25T22:48:54.861Z,5.97
2018-07-25T22:51:23.627Z,5.60
2018-07-25T22:53:52.281Z,5.20
2018-07-25T22:56:21.003Z,5.23
2018-07-25T22:58:49.680Z,5.63
2018-07-25T23:01:18.443Z,6.20
2018-07-25T23:03:47.191Z,5.97
2018-07-25T23:06:15.989Z,6.00
2018-07-25T23:08:44.385Z,5.20
2018-07-25T23:11:13.112Z,5.77
2018-07-25T23:13:45.976Z,6.03
2018-07-25T23:16:15.024Z,6.33
2018-07-25T23:18:43.849Z,6.10
2018-07-25T23:21:12.222Z,5.90
2018-07-25T23:23:40.987Z,5.57
2018-07-25T23:26:09.743Z,6.00
2018-07-25T23:28:38.465Z,5.60
2018-07-25T23:31:07.239Z,5.93
2018-07-25T23:33:36.027Z,5.83
2018-07-25T23:36:04.669Z,6.00
2018-07-25T23:38:33.437Z,6.00
2018-07-25T23:41:02.197Z,5.63
2018-07-25T23:43:30.885Z,6.17
2018-07-25T23:45:59.757Z,6.27
2018-07-25T23:48:28.525Z,6.20
2018-07-25T23:50:57.329Z,5.90
2018-07-25T23:53:26.065Z,6.17
2018-07-25T23:55:54.835Z,6.40
2018-07-25T23:58:24.145Z,5.83
